Time;durP1;ratioP1;P1;durP2;ratioP2;P2;SDS_P1;SDS_P2;PMS_P1;PMS_P2;Temp;Humidity;BMP_temperature;BMP_pressure;BME280_temperature;BME280_humidity;BME280_pressure;Samples;Min_cycle;Max_cycle;Signal;HPM_P1;HPM_P2
2021/06/06 00:02:32;;;;;;;12.15;9.30;;;;;;;15.71;77.29;100548.52;2868741;82;20996;-63
2021/06/06 00:06:37;;;;;;;30.48;12.80;;;;;;;15.73;76.97;100554.61;2868476;83;21088;-63
2021/06/06 00:10:39;;;;;;;17.60;10.60;;;;;;;15.67;76.77;100552.03;2856616;83;21552;-63
2021/06/06 00:14:41;;;;;;;18.40;10.63;;;;;;;15.64;76.62;100556.84;2828511;84;20973;-63
2021/06/06 00:18:43;;;;;;;14.70;8.80;;;;;;;15.56;76.91;100550.91;2827956;84;21055;-64
2021/06/06 00:22:45;;;;;;;9.25;8.35;;;;;;;15.55;76.86;100556.78;2866767;82;21024;-63
2021/06/06 00:26:48;;;;;;;14.87;9.93;;;;;;;15.53;77.17;100553.89;2868096;82;21075;-63
2021/06/06 00:30:49;;;;;;;13.78;12.07;;;;;;;15.52;77.29;100555.72;2867932;83;21023;-63
2021/06/06 00:34:51;;;;;;;13.38;12.07;;;;;;;15.58;78.15;100551.59;2867966;83;20997;-63
2021/06/06 00:38:54;;;;;;;19.02;12.80;;;;;;;15.64;79.01;100554.16;2867436;83;20972;-63
2021/06/06 00:42:56;;;;;;;10.60;9.10;;;;;;;15.67;79.04;100552.03;2858922;83;21039;-63
2021/06/06 00:46:58;;;;;;;12.98;9.60;;;;;;;15.62;78.10;100548.94;2867990;82;21012;-63
2021/06/06 00:51:11;;;;;;;12.40;10.35;;;;;;;15.61;77.86;100554.47;2867352;83;21028;-63
2021/06/06 00:55:14;;;;;;;13.93;8.78;;;;;;;15.61;77.57;100555.81;2867941;83;20964;-63
2021/06/06 00:59:22;;;;;;;12.45;9.50;;;;;;;15.56;77.15;100557.60;2867521;82;21067;-63
2021/06/06 01:03:25;;;;;;;12.65;9.78;;;;;;;15.49;76.99;100551.17;2867650;82;21446;-63
2021/06/06 01:07:27;;;;;;;11.08;9.88;;;;;;;15.37;77.41;100553.23;2867817;82;20988;-63
2021/06/06 01:11:54;;;;;;;11.90;10.55;;;;;;;15.31;77.69;100551.13;2867704;83;21031;-63
2021/06/06 01:16:07;;;;;;;16.27;13.38;;;;;;;15.27;77.65;100555.97;2866913;83;20981;-63
2021/06/06 01:20:26;;;;;;;20.20;15.80;;;;;;;15.21;77.70;100548.51;2872407;82;21027;-63
2021/06/06 01:24:31;;;;;;;16.40;13.43;;;;;;;15.15;77.85;100553.99;2891145;82;21512;-62
2021/06/06 01:28:41;;;;;;;21.45;14.15;;;;;;;15.08;77.76;100551.55;2891103;82;21063;-63
2021/06/06 01:32:47;;;;;;;15.83;14.18;;;;;;;15.04;77.81;100549.68;2949218;80;21027;-63
2021/06/06 01:37:04;;;;;;;18.12;14.43;;;;;;;14.99;77.72;100558.63;2949342;80;20991;-63
2021/06/06 01:41:08;;;;;;;;;;;;;;;14.86;78.43;100548.27;2951456;80;21003;-63
2021/06/06 01:45:16;;;;;;;15.55;12.73;;;;;;;14.71;78.64;100538.02;2940036;80;20161;-63
2021/06/06 01:49:21;;;;;;;13.70;11.68;;;;;;;14.62;79.11;100547.39;2938566;80;21055;-62
2021/06/06 01:53:25;;;;;;;15.63;12.88;;;;;;;14.63;79.11;100552.62;2938630;81;21007;-63
2021/06/06 01:57:28;;;;;;;15.25;13.72;;;;;;;14.66;79.70;100555.00;2938791;80;21039;-63
2021/06/06 02:01:32;;;;;;;17.35;11.25;;;;;;;14.64;80.10;100548.95;2938987;81;20988;-63
2021/06/06 02:05:34;;;;;;;15.00;11.40;;;;;;;14.55;78.76;100552.52;2938607;81;21028;-63
2021/06/06 02:09:41;;;;;;;12.55;10.63;;;;;;;14.51;78.79;100549.75;2944062;80;21075;-63
2021/06/06 02:13:54;;;;;;;13.18;9.70;;;;;;;14.47;78.36;100555.05;2947335;80;20984;-63
2021/06/06 02:17:59;;;;;;;10.78;8.70;;;;;;;14.33;78.68;100551.84;2949076;80;20987;-63
2021/06/06 02:22:05;;;;;;;11.08;9.65;;;;;;;14.26;78.65;100554.75;2926684;80;21023;-63
2021/06/06 02:26:11;;;;;;;21.62;9.70;;;;;;;14.09;79.16;100555.82;2914959;81;21008;-63
2021/06/06 02:30:20;;;;;;;22.15;11.18;;;;;;;13.97;80.03;100558.31;2915192;81;21142;-63
2021/06/06 02:34:27;;;;;;;11.28;9.95;;;;;;;13.95;80.74;100554.42;2915079;81;21015;-63
2021/06/06 02:38:59;;;;;;;14.05;11.80;;;;;;;13.99;80.71;100553.66;2912752;81;21024;-63
2021/06/06 02:43:09;;;;;;;11.15;10.03;;;;;;;14.06;80.72;100552.09;2914892;81;21027;-63
2021/06/06 02:47:12;;;;;;;12.55;10.32;;;;;;;14.13;80.34;100555.87;2915283;81;21043;-63
2021/06/06 02:51:18;;;;;;;15.70;12.45;;;;;;;14.16;80.63;100559.28;2915296;81;21554;-62
2021/06/06 02:55:35;;;;;;;13.30;11.75;;;;;;;14.14;80.86;100553.55;2915542;81;21051;-63
2021/06/06 02:59:56;;;;;;;14.90;13.38;;;;;;;14.10;80.60;100562.86;2915501;81;21007;-63
2021/06/06 03:04:03;;;;;;;13.03;11.22;;;;;;;14.14;81.72;100556.23;2915361;81;21687;-63
2021/06/06 03:08:08;;;;;;;13.53;11.33;;;;;;;14.21;80.39;100555.17;2915341;81;21592;-62
2021/06/06 03:12:14;;;;;;;12.07;10.93;;;;;;;14.25;80.24;100559.75;2915909;81;21012;-63
2021/06/06 03:16:17;;;;;;;13.50;12.13;;;;;;;14.27;80.23;100561.31;2915382;81;21320;-63
2021/06/06 03:20:27;;;;;;;15.65;11.90;;;;;;;14.34;80.28;100561.55;2915372;81;21501;-63
2021/06/06 03:24:46;;;;;;;13.88;12.23;;;;;;;14.38;80.00;100561.64;2914482;81;21631;-62
2021/06/06 03:28:48;;;;;;;12.05;9.78;;;;;;;14.48;80.81;100568.30;2915133;81;21567;-62
2021/06/06 03:32:51;;;;;;;17.85;11.53;;;;;;;14.59;80.89;100569.97;2915740;81;21000;-62
2021/06/06 03:36:59;;;;;;;10.40;9.23;;;;;;;14.56;80.72;100578.30;2915585;81;21066;-63
2021/06/06 03:41:01;;;;;;;21.07;14.30;;;;;;;14.56;81.76;100575.61;2915334;81;21573;-63
2021/06/06 03:45:07;;;;;;;15.48;13.08;;;;;;;14.69;82.23;100570.77;2915562;81;21008;-63
2021/06/06 03:49:10;;;;;;;13.45;11.48;;;;;;;14.86;82.19;100577.72;2915647;81;21047;-63
2021/06/06 03:53:12;;;;;;;15.15;11.40;;;;;;;14.89;82.20;100569.39;2916109;81;21051;-63
2021/06/06 03:57:14;;;;;;;17.07;12.90;;;;;;;14.95;82.76;100562.13;2915963;81;21032;-63
2021/06/06 04:01:17;;;;;;;14.05;12.15;;;;;;;15.05;83.29;100564.76;2915724;81;21056;-63
2021/06/06 04:05:19;;;;;;;11.20;10.05;;;;;;;15.21;82.81;100570.80;2873692;81;21083;-63
2021/06/06 04:09:21;;;;;;;13.72;11.40;;;;;;;15.30;82.23;100566.86;2865594;83;21031;-63
2021/06/06 04:13:24;;;;;;;11.30;10.20;;;;;;;15.54;82.10;100565.81;2865729;83;20987;-63
2021/06/06 04:17:26;;;;;;;25.20;13.83;;;;;;;15.97;83.21;100570.61;2845728;83;21036;-64
2021/06/06 04:21:30;;;;;;;18.60;14.00;;;;;;;17.20;85.70;100576.42;2875538;82;21027;-64
2021/06/06 04:25:34;;;;;;;17.45;13.95;;;;;;;18.44;82.18;100570.86;2891450;82;21504;-64
2021/06/06 04:29:38;;;;;;;15.88;13.25;;;;;;;19.40;78.13;100580.34;2891785;81;21094;-64
2021/06/06 04:33:40;;;;;;;17.92;14.28;;;;;;;20.37;77.90;100573.58;2892427;82;21026;-64
2021/06/06 04:37:42;;;;;;;19.23;14.30;;;;;;;21.61;76.92;100571.78;2892947;82;21031;-64
2021/06/06 04:41:44;;;;;;;13.35;11.95;;;;;;;22.74;71.18;100556.22;2893525;82;21359;-65
2021/06/06 04:45:46;;;;;;;13.50;10.40;;;;;;;23.72;66.75;100565.14;2893830;82;21046;-65
2021/06/06 04:49:54;;;;;;;12.37;10.90;;;;;;;24.13;61.41;100561.12;2893744;82;21078;-65
2021/06/06 04:53:56;;;;;;;17.30;11.25;;;;;;;24.31;60.77;100569.48;2893908;82;21066;-66
2021/06/06 04:57:59;;;;;;;15.10;12.68;;;;;;;24.24;58.38;100561.88;2894083;82;21039;-66
2021/06/06 05:02:00;;;;;;;14.50;12.40;;;;;;;24.16;60.43;100570.22;2897967;82;21030;-66
2021/06/06 05:06:03;;;;;;;14.95;12.53;;;;;;;24.43;60.05;100569.68;2894158;82;21031;-65
2021/06/06 05:10:08;;;;;;;16.55;11.63;;;;;;;24.59;59.42;100578.45;2894562;82;20995;-65
2021/06/06 05:14:10;;;;;;;15.32;10.85;;;;;;;24.73;57.86;100570.58;2894398;82;21023;-65
2021/06/06 05:18:13;;;;;;;13.50;12.20;;;;;;;24.53;58.01;100569.25;2894034;82;21031;-65
2021/06/06 05:22:15;;;;;;;17.05;12.37;;;;;;;24.41;59.31;100584.02;2914394;80;21046;-65
2021/06/06 05:30:58;;;;;;;13.08;11.88;;;;;;;24.93;59.50;100581.42;2954344;80;20972;-65
2021/06/06 05:35:00;;;;;;;13.50;12.13;;;;;;;24.99;58.45;100575.66;2944960;80;21016;-65
2021/06/06 05:39:41;;;;;;;14.13;12.18;;;;;;;24.77;59.14;100573.75;2951920;80;21054;-66
2021/06/06 05:43:42;;;;;;;14.98;12.47;;;;;;;24.84;59.07;100567.76;2902276;82;20999;-66
2021/06/06 05:48:21;;;;;;;14.98;12.85;;;;;;;25.71;59.61;100569.25;2902755;82;20939;-65
2021/06/06 05:52:23;;;;;;;12.03;10.82;;;;;;;26.60;57.11;100568.84;2902682;82;20999;-65
2021/06/06 05:57:03;;;;;;;14.15;12.25;;;;;;;27.33;54.17;100564.99;2902877;82;21174;-66
2021/06/06 06:01:06;;;;;;;14.18;10.88;;;;;;;27.74;53.65;100566.11;2901727;80;20963;-65
2021/06/06 06:05:09;;;;;;;15.13;10.60;;;;;;;28.25;52.37;100567.09;2893190;82;21014;-66
2021/06/06 06:09:47;;;;;;;17.02;10.75;;;;;;;28.57;51.37;100568.63;2897082;82;20959;-66
2021/06/06 06:13:51;;;;;;;13.25;11.95;;;;;;;28.76;51.54;100565.22;2927026;80;20991;-66
2021/06/06 06:18:29;;;;;;;12.10;10.93;;;;;;;28.93;51.19;100562.59;2954179;80;20980;-66
2021/06/06 06:23:05;;;;;;;13.50;11.25;;;;;;;28.76;51.14;100581.09;2937147;81;21008;-66
2021/06/06 06:27:08;;;;;;;10.72;9.73;;;;;;;28.69;50.11;100578.19;2933661;81;21012;-66
2021/06/06 06:31:10;;;;;;;13.38;10.30;;;;;;;28.51;50.45;100574.54;2930098;81;21070;-66
2021/06/06 06:35:13;;;;;;;12.35;9.60;;;;;;;28.39;50.21;100577.80;2874893;82;20956;-66
2021/06/06 06:39:22;;;;;;;12.65;9.48;;;;;;;28.24;51.62;100587.30;2954203;80;21023;-66
2021/06/06 06:43:24;;;;;;;12.30;10.68;;;;;;;27.82;52.43;100590.05;2952132;80;21019;-66
2021/06/06 06:47:33;;;;;;;12.80;10.03;;;;;;;27.97;53.46;100597.81;2952097;80;21015;-66
2021/06/06 06:51:35;;;;;;;10.72;9.45;;;;;;;27.91;52.79;100599.60;2939860;80;20964;-66
2021/06/06 06:55:37;;;;;;;10.93;9.50;;;;;;;27.62;53.00;100593.92;2933982;80;20981;-66
2021/06/06 06:59:40;;;;;;;9.55;8.65;;;;;;;27.27;52.44;100597.30;2939452;80;20959;-66
2021/06/06 07:03:42;;;;;;;10.28;9.25;;;;;;;27.16;53.54;100599.75;2947585;80;20991;-66
2021/06/06 07:07:46;;;;;;;10.90;9.00;;;;;;;27.51;52.87;100590.92;2941401;80;20968;-65
2021/06/06 07:11:49;;;;;;;10.95;8.68;;;;;;;27.90;52.26;100595.17;2954476;80;21059;-66
2021/06/06 07:15:51;;;;;;;9.13;8.10;;;;;;;28.34;51.59;100593.03;2954455;80;20987;-66
2021/06/06 07:19:57;;;;;;;12.70;7.20;;;;;;;28.73;49.33;100590.34;2954473;80;21039;-65
2021/06/06 07:23:59;;;;;;;6.97;6.37;;;;;;;28.85;48.27;100587.61;2950883;80;21007;-65
2021/06/06 07:28:21;;;;;;;7.35;6.65;;;;;;;28.93;48.14;100589.44;2950660;79;21118;-66
2021/06/06 07:32:24;;;;;;;8.83;7.80;;;;;;;28.92;48.40;100591.04;2948716;80;20983;-66
2021/06/06 07:36:28;;;;;;;8.68;7.78;;;;;;;28.79;48.10;100597.58;2949544;80;20995;-66
2021/06/06 07:40:35;;;;;;;13.98;7.67;;;;;;;28.54;48.70;100599.20;2943865;81;21034;-66
2021/06/06 07:44:36;;;;;;;9.45;7.25;;;;;;;28.62;49.38;100602.41;2946922;80;21007;-65
2021/06/06 07:48:43;;;;;;;10.13;6.95;;;;;;;28.86;48.78;100601.04;2951268;80;21031;-66
2021/06/06 07:52:45;;;;;;;7.70;6.90;;;;;;;29.00;47.62;100592.57;2951088;80;20987;-66
2021/06/06 07:56:47;;;;;;;9.98;6.72;;;;;;;28.94;47.77;100597.09;2950873;80;20936;-67
2021/06/06 08:00:49;;;;;;;9.35;7.25;;;;;;;28.95;48.06;100594.66;2950880;80;20995;-67
2021/06/06 08:04:51;;;;;;;7.22;6.58;;;;;;;28.82;48.56;100597.13;2950865;80;21051;-66
2021/06/06 08:08:57;;;;;;;7.58;6.65;;;;;;;28.77;48.18;100595.63;2951032;80;21690;-67
2021/06/06 08:13:00;;;;;;;6.60;6.00;;;;;;;28.90;47.42;100595.41;2951154;80;21018;-67
2021/06/06 08:17:04;;;;;;;7.30;6.53;;;;;;;28.98;48.18;100596.91;2951083;80;20984;-67
2021/06/06 08:21:11;;;;;;;7.10;6.50;;;;;;;29.14;47.81;100591.23;2929433;80;21019;-67
2021/06/06 08:25:14;;;;;;;7.25;6.55;;;;;;;29.30;48.72;100592.91;2950626;80;21228;-66
2021/06/06 08:29:19;;;;;;;6.25;5.65;;;;;;;29.41;47.81;100589.31;2950866;80;21011;-67
2021/06/06 08:33:25;;;;;;;7.30;6.53;;;;;;;29.44;46.39;100583.34;2950983;80;21074;-66
2021/06/06 08:37:28;;;;;;;7.28;5.42;;;;;;;29.34;45.96;100590.79;2950653;80;20992;-67
2021/06/06 08:41:40;;;;;;;7.22;6.62;;;;;;;29.06;46.54;100584.75;2950902;80;20992;-67
2021/06/06 08:45:56;;;;;;;5.12;4.50;;;;;;;28.99;47.40;100584.06;2948959;80;21051;-67
2021/06/06 08:50:03;;;;;;;6.62;4.83;;;;;;;28.89;46.74;100580.58;2950709;80;20972;-66
2021/06/06 08:54:22;;;;;;;11.08;4.05;;;;;;;28.70;47.65;100586.16;2958177;80;21024;-67
2021/06/06 08:58:49;;;;;;;5.17;4.45;;;;;;;28.53;45.89;100581.97;2962405;80;21004;-66
2021/06/06 09:02:59;;;;;;;7.78;5.65;;;;;;;28.60;47.92;100583.22;2953521;80;21003;-66
2021/06/06 09:07:10;;;;;;;4.50;3.98;;;;;;;28.40;47.33;100580.83;2950987;80;21023;-67
2021/06/06 09:11:17;;;;;;;5.28;4.37;;;;;;;28.41;47.70;100571.55;2953671;80;20971;-66
2021/06/06 09:15:22;;;;;;;5.58;3.75;;;;;;;28.42;48.82;100574.06;2953749;80;21011;-65
2021/06/06 09:19:42;;;;;;;6.60;4.22;;;;;;;28.48;47.70;100569.52;2954053;80;21051;-65
2021/06/06 09:23:47;;;;;;;5.28;4.65;;;;;;;28.57;48.14;100568.10;2947686;80;20984;-67
2021/06/06 09:28:13;;;;;;;5.42;4.92;;;;;;;28.76;48.17;100563.85;2953952;79;21051;-66
2021/06/06 09:32:22;;;;;;;5.00;4.40;;;;;;;28.86;46.54;100562.72;2951143;80;20988;-66
2021/06/06 09:37:09;;;;;;;8.03;4.92;;;;;;;28.88;47.50;100559.20;2954504;80;21031;-65
2021/06/06 09:41:16;;;;;;;4.78;4.35;;;;;;;29.01;46.78;100558.12;2843592;83;21036;-66
2021/06/06 09:45:26;;;;;;;6.80;4.67;;;;;;;29.13;47.85;100558.08;2842470;83;21044;-65
2021/06/06 09:49:38;;;;;;;5.22;4.72;;;;;;;29.03;49.56;100556.48;2843564;83;21136;-66
2021/06/06 09:53:42;;;;;;;9.98;4.40;;;;;;;29.04;46.09;100551.30;2843503;83;21012;-65
2021/06/06 09:57:46;;;;;;;5.75;4.40;;;;;;;28.82;47.22;100550.59;2843609;83;21001;-65
2021/06/06 10:02:14;;;;;;;6.72;5.25;;;;;;;28.72;47.34;100553.91;2817540;83;21084;-64
2021/06/06 10:06:37;;;;;;;7.50;4.25;;;;;;;28.79;48.30;100549.68;2842390;83;21076;-65
2021/06/06 10:10:43;;;;;;;5.28;4.67;;;;;;;28.84;48.02;100551.18;2875258;80;20972;-64
2021/06/06 10:15:06;;;;;;;7.22;4.20;;;;;;;28.97;50.04;100545.97;2950976;80;20995;-64
2021/06/06 10:19:38;;;;;;;5.00;4.53;;;;;;;29.11;50.89;100550.65;2860012;82;21036;-64
2021/06/06 10:23:51;;;;;;;4.35;3.98;;;;;;;29.10;49.07;100546.25;2924613;80;21050;-64
2021/06/06 10:28:04;;;;;;;6.87;4.47;;;;;;;28.96;47.05;100546.23;2942408;79;21011;-64
2021/06/06 10:32:33;;;;;;;4.70;4.30;;;;;;;28.64;47.09;100547.45;2942478;80;21023;-65
2021/06/06 10:36:49;;;;;;;4.42;3.98;;;;;;;28.48;46.67;100549.84;2951819;80;20975;-64
2021/06/06 10:40:57;;;;;;;5.65;4.37;;;;;;;28.64;47.70;100549.64;2942906;80;21008;-64
2021/06/06 10:45:14;;;;;;;6.45;4.92;;;;;;;28.88;46.64;100552.35;2945472;80;21047;-64
2021/06/06 10:49:32;;;;;;;4.87;3.83;;;;;;;28.91;46.96;100540.95;2948059;80;21020;-65
2021/06/06 10:53:37;;;;;;;3.87;3.58;;;;;;;28.96;46.25;100543.48;2950140;80;21011;-64
2021/06/06 10:57:42;;;;;;;6.47;4.83;;;;;;;28.87;45.49;100538.37;2948055;80;21015;-66
2021/06/06 11:01:49;;;;;;;6.17;5.25;;;;;;;28.88;45.82;100533.19;2948970;80;20944;-67
2021/06/06 11:05:58;;;;;;;5.40;4.37;;;;;;;28.98;46.14;100533.13;2943506;80;21079;-66
2021/06/06 11:10:08;;;;;;;9.00;4.22;;;;;;;29.08;45.90;100533.31;2927598;80;20999;-68
2021/06/06 11:14:19;;;;;;;6.15;4.22;;;;;;;28.96;46.27;100528.43;2953586;80;21058;-64
2021/06/06 11:18:28;;;;;;;5.05;4.10;;;;;;;28.87;46.95;100527.42;2954463;80;20999;-65
2021/06/06 11:22:35;;;;;;;4.78;4.37;;;;;;;28.88;47.32;100526.34;2947006;80;21008;-65
2021/06/06 11:26:42;;;;;;;7.08;4.70;;;;;;;28.86;49.47;100527.13;2903235;81;20995;-61
2021/06/06 11:30:44;;;;;;;4.92;4.12;;;;;;;28.91;46.09;100523.16;2906603;81;21020;-64
2021/06/06 11:35:13;;;;;;;4.90;4.50;;;;;;;28.94;49.04;100519.08;2897215;81;21414;-63
2021/06/06 11:39:47;;;;;;;6.65;5.00;;;;;;;28.98;46.77;100513.41;2881733;82;21008;-61
2021/06/06 11:44:03;;;;;;;5.47;4.37;;;;;;;29.02;45.98;100512.39;2882915;82;21019;-63
2021/06/06 11:48:12;;;;;;;3.87;3.58;;;;;;;29.08;47.39;100514.98;2928178;81;21004;-63
2021/06/06 11:52:45;;;;;;;4.67;3.45;;;;;;;29.07;44.58;100511.95;2910324;81;21031;-63
2021/06/06 11:56:47;;;;;;;5.62;4.15;;;;;;;29.17;45.33;100509.11;2937725;80;21015;-63
2021/06/06 12:01:12;;;;;;;7.42;3.98;;;;;;;29.18;43.98;100501.18;2920707;81;21070;-63
2021/06/06 12:05:32;;;;;;;5.67;4.65;;;;;;;29.24;43.25;100498.85;2920598;81;21039;-63
2021/06/06 12:09:43;;;;;;;4.53;3.35;;;;;;;29.27;42.96;100490.66;2885534;81;20967;-62
2021/06/06 12:13:49;;;;;;;4.08;3.62;;;;;;;29.50;44.96;100494.70;2888146;81;21592;-62
2021/06/06 12:18:23;;;;;;;4.75;4.08;;;;;;;29.61;43.51;100493.48;2892899;81;21001;-62
2021/06/06 12:22:33;;;;;;;4.67;3.87;;;;;;;29.68;43.82;100487.31;2919079;81;21028;-61
2021/06/06 12:26:43;;;;;;;3.85;3.27;;;;;;;29.61;44.76;100490.22;2927450;81;21043;-65
2021/06/06 12:31:01;;;;;;;4.37;3.95;;;;;;;29.69;43.67;100488.98;2934087;81;21024;-65
2021/06/06 12:35:17;;;;;;;6.20;4.67;;;;;;;29.69;43.67;100488.98;2898404;81;21027;-63
2021/06/06 12:39:22;;;;;;;10.53;5.17;;;;;;;29.49;42.95;100486.19;2882626;82;21016;-63
2021/06/06 12:43:28;;;;;;;3.92;3.47;;;;;;;29.48;43.37;100480.41;2883386;82;21015;-64
2021/06/06 12:47:38;;;;;;;4.62;4.08;;;;;;;29.46;45.03;100482.55;2883784;82;20984;-66
2021/06/06 12:51:47;;;;;;;7.75;4.65;;;;;;;29.46;45.03;100482.55;2883858;82;21035;-64
2021/06/06 12:55:48;;;;;;;4.17;2.92;;;;;;;29.44;44.12;100469.63;2883844;82;21047;-63
2021/06/06 13:00:13;;;;;;;4.83;3.90;;;;;;;29.43;45.14;100472.09;2885573;81;21043;-63
2021/06/06 13:04:26;;;;;;;5.83;4.42;;;;;;;29.40;44.08;100468.45;2833617;81;20998;-62
2021/06/06 13:08:36;;;;;;;6.37;4.50;;;;;;;29.24;44.31;100473.36;2892669;80;20993;-63
2021/06/06 13:12:42;;;;;;;5.80;3.75;;;;;;;29.17;44.56;100468.88;2884208;82;21012;-63
2021/06/06 13:16:58;;;;;;;4.53;4.12;;;;;;;29.03;44.37;100470.24;2884717;82;21027;-62
2021/06/06 13:21:08;;;;;;;5.80;4.47;;;;;;;29.14;47.92;100472.62;2882001;82;20996;-63
2021/06/06 13:25:14;;;;;;;3.70;3.40;;;;;;;29.28;43.45;100473.15;2916947;81;20968;-63
2021/06/06 13:29:49;;;;;;;14.90;5.62;;;;;;;29.34;44.38;100470.26;2928684;80;21101;-63
2021/06/06 13:33:50;;;;;;;6.77;3.80;;;;;;;29.48;45.56;100464.50;2928779;81;20984;-62
2021/06/06 13:37:54;;;;;;;4.37;3.98;;;;;;;29.67;44.61;100467.81;2926046;80;21011;-63
2021/06/06 13:41:58;;;;;;;5.28;4.35;;;;;;;29.55;42.97;100463.79;2928641;81;20968;-62
2021/06/06 13:46:00;;;;;;;4.05;3.60;;;;;;;29.72;43.57;100462.96;2928659;81;20992;-62
2021/06/06 13:50:03;;;;;;;4.20;3.62;;;;;;;29.92;47.04;100463.83;2928799;81;20988;-63
2021/06/06 13:54:08;;;;;;;5.67;4.50;;;;;;;30.03;46.80;100456.62;2928879;81;20964;-62
2021/06/06 13:58:30;;;;;;;3.80;3.45;;;;;;;30.17;46.36;100461.19;2929289;81;20996;-63
2021/06/06 14:02:32;;;;;;;4.10;3.65;;;;;;;30.20;43.25;100458.78;2928776;81;21347;-63
2021/06/06 14:06:34;;;;;;;3.98;3.67;;;;;;;30.34;44.69;100460.61;2928853;81;21015;-63
2021/06/06 14:10:41;;;;;;;8.83;5.15;;;;;;;30.33;42.14;100457.58;2928799;81;21051;-63
2021/06/06 14:14:43;;;;;;;5.67;4.50;;;;;;;30.15;42.99;100455.13;2928980;81;21012;-63
2021/06/06 14:18:46;;;;;;;4.72;4.33;;;;;;;30.10;42.43;100452.33;2928530;81;21004;-63
2021/06/06 14:22:52;;;;;;;6.08;3.83;;;;;;;30.09;45.27;100448.73;2931385;80;21047;-63
2021/06/06 14:26:59;;;;;;;4.13;3.83;;;;;;;30.15;44.73;100451.83;2951150;78;21081;-63
2021/06/06 14:31:00;;;;;;;4.33;3.75;;;;;;;30.21;42.56;100457.70;2976183;80;21006;-63
2021/06/06 14:35:04;;;;;;;4.50;3.12;;;;;;;30.24;41.72;100454.97;2975981;80;21539;-63
2021/06/06 14:39:11;;;;;;;3.87;3.50;;;;;;;30.21;41.83;100463.19;2958223;80;21065;-63
2021/06/06 14:43:18;;;;;;;6.40;4.30;;;;;;;30.23;41.28;100462.09;2954869;80;21058;-64
2021/06/06 14:47:29;;;;;;;5.55;4.58;;;;;;;30.30;41.82;100468.22;2954645;80;20983;-63
2021/06/06 14:51:35;;;;;;;3.55;3.20;;;;;;;30.31;41.39;100461.13;2954411;80;21110;-63
2021/06/06 14:55:38;;;;;;;3.25;3.00;;;;;;;30.54;42.89;100457.84;2954579;80;21059;-63
2021/06/06 14:59:46;;;;;;;3.55;3.25;;;;;;;30.79;42.41;100457.87;2954377;80;21008;-63
2021/06/06 15:03:50;;;;;;;3.35;3.05;;;;;;;31.03;41.70;100456.20;2955356;80;21003;-63
2021/06/06 15:07:52;;;;;;;4.62;3.12;;;;;;;31.13;41.71;100457.69;2955120;80;21008;-63
2021/06/06 15:11:55;;;;;;;4.33;3.70;;;;;;;31.02;40.86;100454.54;2955241;80;21047;-63
2021/06/06 15:15:58;;;;;;;7.10;4.42;;;;;;;31.09;41.93;100446.09;2955143;80;20983;-63
2021/06/06 15:20:00;;;;;;;3.90;3.60;;;;;;;30.92;40.91;100447.02;2955327;80;20975;-63
2021/06/06 15:24:03;;;;;;;4.40;3.83;;;;;;;30.60;39.63;100439.52;2955138;80;20987;-63
2021/06/06 15:28:12;;;;;;;5.80;4.78;;;;;;;30.41;40.92;100439.00;2955111;79;21043;-63
2021/06/06 15:32:13;;;;;;;8.10;4.92;;;;;;;30.23;40.38;100438.78;2955116;80;20964;-63
2021/06/06 15:36:21;;;;;;;4.80;3.95;;;;;;;30.06;41.46;100434.98;2955160;80;20987;-63
2021/06/06 15:40:26;;;;;;;4.15;3.72;;;;;;;29.91;41.79;100430.64;2955312;80;21087;-63
2021/06/06 15:44:28;;;;;;;12.88;4.55;;;;;;;29.81;41.91;100433.22;2954950;80;20988;-63
2021/06/06 15:48:46;;;;;;;4.28;3.87;;;;;;;29.79;43.70;100426.08;2954729;80;20983;-62
2021/06/06 15:52:48;;;;;;;7.10;3.75;;;;;;;29.66;42.42;100429.16;2954579;80;21054;-63
2021/06/06 15:56:51;;;;;;;16.97;5.97;;;;;;;29.67;44.87;100422.59;2954549;80;20972;-62
2021/06/06 16:00:54;;;;;;;3.52;3.22;;;;;;;29.70;44.87;100421.27;2954554;80;21045;-63
2021/06/06 16:04:55;;;;;;;6.10;3.60;;;;;;;29.66;43.39;100418.19;2954667;80;20988;-63
2021/06/06 16:09:09;;;;;;;4.40;3.42;;;;;;;29.59;42.43;100413.44;2954656;80;21007;-63
2021/06/06 16:13:11;;;;;;;2.87;2.62;;;;;;;29.59;42.43;100413.44;2953768;80;21019;-61
2021/06/06 16:17:18;;;;;;;3.70;2.95;;;;;;;29.41;42.24;100392.06;2953122;80;21057;-61
2021/06/06 16:21:25;;;;;;;4.10;3.52;;;;;;;29.43;42.64;100415.92;2953192;80;21035;-61
2021/06/06 16:25:28;;;;;;;5.15;3.47;;;;;;;29.22;42.70;100416.92;2953252;80;21022;-61
2021/06/06 16:29:33;;;;;;;3.55;3.25;;;;;;;28.99;42.61;100413.80;2918234;79;21078;-62
2021/06/06 16:33:37;;;;;;;4.10;3.70;;;;;;;28.62;44.80;100384.88;2929539;80;21010;-61
2021/06/06 16:37:41;;;;;;;3.85;3.40;;;;;;;28.62;44.80;100384.88;2953697;80;20960;-62
2021/06/06 16:41:43;;;;;;;7.47;3.45;;;;;;;28.73;44.59;100405.05;2953635;80;21019;-62
2021/06/06 16:45:46;;;;;;;4.08;3.67;;;;;;;28.72;44.23;100401.22;2953511;80;20987;-61
2021/06/06 16:49:49;;;;;;;5.53;3.15;;;;;;;28.74;43.96;100399.06;2953376;80;21011;-61
2021/06/06 16:53:55;;;;;;;2.72;2.52;;;;;;;28.74;43.26;100407.27;2953464;80;20972;-62
2021/06/06 16:58:16;;;;;;;5.30;3.15;;;;;;;28.62;42.70;100399.11;2953325;80;21454;-61
2021/06/06 17:02:18;;;;;;;4.78;2.17;;;;;;;28.43;42.83;100398.45;2953058;80;20960;-61
2021/06/06 17:06:26;;;;;;;4.05;3.10;;;;;;;28.21;42.06;100399.09;2918163;80;20999;-61
2021/06/06 17:10:32;;;;;;;3.62;3.20;;;;;;;28.04;42.09;100393.52;2945806;80;20975;-61
2021/06/06 17:14:34;;;;;;;2.47;2.27;;;;;;;27.91;44.93;100395.42;2952882;80;21007;-62
2021/06/06 17:18:36;;;;;;;2.90;2.70;;;;;;;27.75;44.14;100387.94;2952981;80;20963;-61
2021/06/06 17:22:38;;;;;;;6.17;2.90;;;;;;;27.61;44.41;100399.65;2917318;80;20990;-62
2021/06/06 17:26:44;;;;;;;3.90;3.50;;;;;;;27.48;47.45;100394.67;2873766;82;21533;-61
2021/06/06 17:30:45;;;;;;;3.20;2.90;;;;;;;27.37;46.72;100399.05;2869147;81;20988;-61
2021/06/06 17:34:47;;;;;;;3.67;3.37;;;;;;;27.29;49.03;100398.56;2868742;83;21074;-61
2021/06/06 17:38:49;;;;;;;4.83;3.12;;;;;;;27.18;50.22;100405.14;2868941;83;20992;-61
2021/06/06 17:42:50;;;;;;;5.12;3.08;;;;;;;27.07;47.94;100403.20;2868941;83;21015;-61
2021/06/06 17:46:53;;;;;;;3.80;2.55;;;;;;;26.96;46.96;100413.56;2869171;83;20995;-61
2021/06/06 17:50:58;;;;;;;7.22;2.60;;;;;;;26.80;44.53;100407.66;2868716;83;21016;-61
2021/06/06 17:55:00;;;;;;;2.95;2.65;;;;;;;26.66;44.22;100405.10;2868825;83;21544;-61
2021/06/06 17:59:03;;;;;;;5.03;2.83;;;;;;;26.55;44.68;100415.44;2868913;83;20987;-61
2021/06/06 18:03:08;;;;;;;2.72;2.52;;;;;;;26.44;44.52;100416.20;2868821;83;21023;-61
2021/06/06 18:07:16;;;;;;;4.10;3.27;;;;;;;26.33;45.47;100415.89;2868638;83;28223;-61
2021/06/06 18:11:18;;;;;;;3.70;3.40;;;;;;;26.22;45.72;100420.20;2868918;83;21008;-61
2021/06/06 18:15:20;;;;;;;6.90;3.92;;;;;;;26.09;46.13;100418.43;2868073;83;21004;-61
2021/06/06 18:19:25;;;;;;;5.60;3.87;;;;;;;25.97;48.97;100416.17;2868627;83;20988;-61
2021/06/06 18:23:28;;;;;;;5.10;3.52;;;;;;;25.86;50.06;100415.02;2880788;80;20992;-62
2021/06/06 18:27:35;;;;;;;4.05;3.25;;;;;;;25.76;50.19;100417.41;2952899;79;21102;-60
2021/06/06 18:31:37;;;;;;;3.22;2.90;;;;;;;25.62;52.13;100418.06;2952999;80;21006;-60
2021/06/06 18:35:39;;;;;;;11.90;3.65;;;;;;;25.47;52.17;100423.81;2953071;80;20991;-62
2021/06/06 18:39:41;;;;;;;5.17;4.10;;;;;;;25.29;53.57;100429.49;2953368;80;21030;-64
2021/06/06 18:43:43;;;;;;;12.63;3.77;;;;;;;25.10;54.06;100439.44;2953503;80;21055;-61
2021/06/06 18:47:46;;;;;;;3.83;3.42;;;;;;;24.89;55.46;100444.16;2939241;80;21051;-60
2021/06/06 18:51:50;;;;;;;10.53;3.80;;;;;;;24.65;56.49;100451.98;2952672;80;20984;-60
2021/06/06 18:55:57;;;;;;;4.17;3.77;;;;;;;24.45;57.62;100449.86;2952527;80;21027;-60
2021/06/06 19:00:01;;;;;;;4.20;3.22;;;;;;;24.21;58.77;100455.77;2945773;80;21020;-60
2021/06/06 19:04:02;;;;;;;5.12;4.53;;;;;;;24.00;59.54;100458.20;2950648;80;21011;-60
2021/06/06 19:08:08;;;;;;;13.28;4.15;;;;;;;23.78;59.71;100461.65;2951275;80;21046;-60